Time;durP1;ratioP1;P1;durP2;ratioP2;P2;SDS_P1;SDS_P2;PMS_P1;PMS_P2;Temp;Humidity;BMP_temperature;BMP_pressure;BME280_temperature;BME280_humidity;BME280_pressure;Samples;Min_cycle;Max_cycle;Signal;HPM_P1;HPM_P2
2022/02/03 00:00:39;;;;;;;17.42;10.82;;;;;;;-5.19;71.38;100752.56;5076479;28;20090;-64
2022/02/03 00:03:18;;;;;;;19.50;11.27;;;;;;;-5.30;71.00;100737.41;5060262;28;20040;-61
2022/02/03 00:05:51;;;;;;;19.42;10.75;;;;;;;-5.19;70.83;100751.72;5078266;28;20038;-61
2022/02/03 00:16:29;;;;;;;13.65;9.48;;;;;;;-5.32;70.57;100770.38;5073869;28;19973;-61
2022/02/03 00:24:45;;;;;;;17.60;10.00;;;;;;;-5.40;69.42;100762.06;5073573;28;20483;-62
2022/02/03 00:27:18;;;;;;;17.25;10.05;;;;;;;-5.30;70.38;100771.16;5073557;28;20093;-62
2022/02/03 00:32:39;;;;;;;14.73;9.40;;;;;;;-5.25;69.24;100778.75;5073866;28;20036;-62
2022/02/03 00:37:58;;;;;;;13.07;8.55;;;;;;;-5.22;70.00;100782.97;5073269;28;20036;-60
2022/02/03 00:48:54;;;;;;;15.38;8.50;;;;;;;-5.23;69.88;100789.91;5073004;28;20443;-62
2022/02/03 00:51:21;;;;;;;14.45;9.43;;;;;;;-5.25;69.68;100796.06;5073242;28;20495;-61
2022/02/03 00:53:47;;;;;;;14.30;9.05;;;;;;;-5.35;69.40;100785.22;5073150;28;20037;-62
2022/02/03 00:56:20;;;;;;;11.38;7.75;;;;;;;-5.36;69.12;100799.09;5072786;28;20564;-62
2022/02/03 00:58:54;;;;;;;11.60;7.43;;;;;;;-5.58;69.08;100783.53;5073017;28;20047;-60
2022/02/03 01:01:27;;;;;;;9.55;7.43;;;;;;;-5.86;70.19;100778.56;5073188;28;20117;-61
2022/02/03 01:03:57;;;;;;;10.48;7.93;;;;;;;-5.82;70.26;100800.88;5072931;28;20035;-62
2022/02/03 01:06:27;;;;;;;10.68;7.18;;;;;;;-5.86;71.02;100794.13;5072800;28;20487;-62
2022/02/03 01:08:55;;;;;;;8.82;7.30;;;;;;;-5.70;70.60;100804.78;5072844;28;20049;-63
2022/02/03 01:11:28;;;;;;;10.60;7.95;;;;;;;-5.66;70.29;100821.91;5072473;28;20139;-62
2022/02/03 01:14:05;;;;;;;9.65;7.53;;;;;;;-5.72;69.14;100804.00;5072848;28;20036;-63
2022/02/03 01:43:20;;;;;;;11.37;7.73;;;;;;;-5.79;70.35;100818.06;5072235;28;20034;-63
2022/02/03 01:43:35;;;;;;;8.50;6.60;;;;;;;-5.95;70.36;100794.50;5072924;28;20048;-62
2022/02/03 01:46:13;;;;;;;11.45;8.05;;;;;;;-5.87;69.87;100807.16;5072132;28;20097;-63
2022/02/03 01:53:50;;;;;;;11.68;7.22;;;;;;;-5.76;70.13;100807.59;5071683;28;20036;-62
2022/02/03 01:56:23;;;;;;;10.43;7.37;;;;;;;-5.67;69.61;100831.44;5072246;28;20045;-63
2022/02/03 01:58:58;;;;;;;11.60;8.52;;;;;;;-5.72;69.94;100828.19;5071865;28;20040;-62
2022/02/03 02:01:32;;;;;;;11.95;7.72;;;;;;;-5.78;70.12;100818.03;5071714;28;20070;-62
2022/02/03 02:04:27;;;;;;;11.07;7.55;;;;;;;-5.70;70.37;100831.56;5072012;28;20102;-63
2022/02/03 02:07:15;;;;;;;11.52;7.53;;;;;;;-5.65;70.36;100829.63;5050395;28;20032;-61
2022/02/03 02:12:59;;;;;;;11.00;8.18;;;;;;;-5.56;70.89;100823.22;5074485;28;20059;-63
2022/02/03 02:18:23;;;;;;;15.48;10.38;;;;;;;-5.94;71.49;100825.56;5080103;28;20098;-61
2022/02/03 02:38:10;;;;;;;15.48;10.50;;;;;;;-5.60;70.29;100837.22;5071288;28;20086;-61
2022/02/03 02:43:40;;;;;;;14.30;7.93;;;;;;;-5.58;71.63;100838.03;5040066;28;20071;-62
2022/02/03 02:46:20;;;;;;;14.82;8.75;;;;;;;-5.43;70.72;100855.59;5071372;28;20105;-62
2022/02/03 02:48:59;;;;;;;15.15;8.40;;;;;;;-5.46;71.08;100845.34;5071476;28;20090;-62
2022/02/03 02:51:35;;;;;;;12.93;8.23;;;;;;;-5.42;71.39;100861.66;5071817;28;20036;-61
2022/02/03 02:54:38;;;;;;;15.60;9.63;;;;;;;-5.47;70.62;100864.41;5071603;28;20495;-61
2022/02/03 03:34:36;;;;;;;12.82;8.10;;;;;;;-6.07;70.08;100889.16;5056931;28;20161;-60
2022/02/03 03:37:07;;;;;;;15.48;8.45;;;;;;;-5.94;70.26;100890.41;5074750;28;20040;-63
2022/02/03 03:39:41;;;;;;;13.20;8.48;;;;;;;-5.78;69.22;100900.16;5074807;28;20029;-62
2022/02/03 03:42:11;;;;;;;11.38;8.63;;;;;;;-5.77;68.92;100891.50;5075071;28;20123;-61
2022/02/03 03:44:40;;;;;;;16.23;9.88;;;;;;;-5.68;68.86;100904.13;5074427;28;20042;-61
2022/02/03 03:47:10;;;;;;;14.63;8.07;;;;;;;-5.74;68.67;100891.41;5074501;28;20044;-63
2022/02/03 03:49:45;;;;;;;14.23;8.52;;;;;;;-5.77;68.58;100888.91;5074300;28;20063;-62
2022/02/03 03:52:20;;;;;;;13.27;7.50;;;;;;;-5.75;68.31;100902.69;5074531;28;20467;-63
2022/02/03 03:55:08;;;;;;;11.73;7.95;;;;;;;-5.80;68.30;100887.25;5074637;28;20063;-61
2022/02/03 03:57:59;;;;;;;14.23;8.93;;;;;;;-5.74;68.19;100902.63;5074312;28;20075;-62
2022/02/03 04:01:02;;;;;;;12.40;7.82;;;;;;;-6.18;68.26;100862.75;5073984;28;20047;-64
2022/02/03 04:43:54;;;;;;;13.88;9.00;;;;;;;-5.93;67.11;100922.38;5073740;28;20072;-62
2022/02/03 05:05:24;;;;;;;14.55;8.15;;;;;;;-6.44;68.24;100945.72;4975311;28;20038;-64
2022/02/03 05:11:36;;;;;;;14.90;9.13;;;;;;;-6.67;68.84;100949.91;5051490;28;20076;-64
2022/02/03 05:43:10;;;;;;;16.73;8.93;;;;;;;-6.39;67.96;100991.31;5071950;28;20542;-67
2022/02/03 05:51:26;;;;;;;12.88;8.23;;;;;;;-6.37;67.18;100989.50;5029545;28;20148;-62
2022/02/03 06:05:21;;;;;;;14.35;8.82;;;;;;;-6.42;67.75;100995.75;5071888;28;20040;-70
2022/02/03 06:08:26;;;;;;;13.45;8.60;;;;;;;-6.53;67.61;100971.94;5072384;28;20056;-68
2022/02/03 06:14:10;;;;;;;13.52;8.57;;;;;;;-6.53;68.52;101005.63;5057708;28;20048;-66
2022/02/03 06:24:31;;;;;;;14.43;9.13;;;;;;;-6.47;68.72;101023.56;5054428;28;20040;-64
2022/02/03 06:29:48;;;;;;;19.23;11.88;;;;;;;-6.40;68.11;101020.72;5053599;28;20384;-64
2022/02/03 06:32:14;;;;;;;16.38;9.40;;;;;;;-6.53;68.18;101013.41;5072476;28;20040;-70
2022/02/03 06:34:39;;;;;;;18.60;9.90;;;;;;;-6.58;69.20;101018.72;5074233;28;20049;-65
2022/02/03 06:37:05;;;;;;;14.17;9.20;;;;;;;-6.64;68.63;101017.19;5073444;28;20032;-70
2022/02/03 06:39:31;;;;;;;14.93;9.73;;;;;;;-6.48;68.64;101027.88;5072760;28;20028;-66
2022/02/03 06:42:01;;;;;;;16.83;10.40;;;;;;;-6.47;68.68;101019.22;5075387;28;20028;-66
2022/02/03 06:44:37;;;;;;;17.75;9.77;;;;;;;-6.38;68.35;101031.03;5076751;28;20484;-64
2022/02/03 06:47:15;;;;;;;14.57;9.25;;;;;;;-6.40;67.92;101015.53;5059164;28;20083;-66
2022/02/03 06:50:05;;;;;;;12.77;7.15;;;;;;;-6.29;68.01;101023.81;5075550;28;20127;-70
2022/02/03 06:55:37;;;;;;;15.27;9.05;;;;;;;-6.40;67.70;101010.34;5075773;28;20123;-73
2022/02/03 07:03:42;;;;;;;13.95;7.97;;;;;;;-6.10;66.03;101047.38;5002000;28;20452;-70
2022/02/03 07:06:08;;;;;;;10.23;7.78;;;;;;;-6.19;64.44;101034.72;5065395;28;20052;-65
2022/02/03 07:08:36;;;;;;;9.03;7.30;;;;;;;-6.53;65.27;100969.34;5089418;28;20036;-70
2022/02/03 07:11:03;;;;;;;14.35;8.75;;;;;;;-6.10;65.66;101034.41;5081411;28;20611;-70
2022/02/03 07:13:28;;;;;;;9.32;6.80;;;;;;;-6.07;63.96;101021.38;5057266;28;20064;-71
2022/02/03 07:15:54;;;;;;;8.67;6.37;;;;;;;-6.08;63.09;101017.06;5074582;28;20060;-65
2022/02/03 07:18:20;;;;;;;12.33;6.93;;;;;;;-5.91;63.90;101049.38;5057095;28;20039;-65
2022/02/03 07:20:45;;;;;;;11.93;6.97;;;;;;;-5.90;63.89;101056.25;5074676;28;20029;-65
2022/02/03 07:23:11;;;;;;;12.47;7.13;;;;;;;-5.97;63.95;101053.88;5056908;28;20081;-66
2022/02/03 07:25:38;;;;;;;11.77;7.63;;;;;;;-5.99;63.75;101058.28;5074395;28;20042;-65
2022/02/03 07:28:04;;;;;;;15.18;8.15;;;;;;;-5.99;64.88;101067.81;5074290;28;20051;-62
2022/02/03 07:30:30;;;;;;;18.65;9.02;;;;;;;-6.09;64.87;101056.00;5056407;28;20119;-64
2022/02/03 07:32:58;;;;;;;15.32;9.27;;;;;;;-6.10;65.05;101062.94;5074518;28;20123;-67
2022/02/03 07:35:26;;;;;;;13.73;9.70;;;;;;;-6.11;65.52;101075.97;5056856;28;20085;-64
2022/02/03 07:37:52;;;;;;;12.82;8.48;;;;;;;-6.30;65.21;101062.75;5074525;28;20092;-64
2022/02/03 07:40:19;;;;;;;16.63;10.43;;;;;;;-6.29;66.23;101080.00;5074286;28;20036;-63
2022/02/03 07:42:47;;;;;;;19.05;10.20;;;;;;;-6.44;66.63;101075.28;5074437;28;20487;-64
2022/02/03 07:45:14;;;;;;;17.67;10.63;;;;;;;-6.41;66.82;101088.13;5074102;28;20102;-69
2022/02/03 07:47:48;;;;;;;16.15;10.68;;;;;;;-6.45;67.07;101089.13;5056436;28;20123;-63
2022/02/03 07:50:15;;;;;;;16.30;11.30;;;;;;;-6.46;67.09;101096.06;5073738;28;20037;-63
2022/02/03 07:52:41;;;;;;;15.75;10.95;;;;;;;-6.53;67.29;101080.75;5056212;28;20032;-63
2022/02/03 07:55:07;;;;;;;16.90;11.23;;;;;;;-6.94;66.53;101034.50;5074660;28;20036;-64
2022/02/03 07:57:34;;;;;;;19.43;10.77;;;;;;;-6.74;68.06;101088.25;5074639;28;20077;-65
2022/02/03 07:59:59;;;;;;;19.70;11.55;;;;;;;-6.73;67.68;101083.94;5074091;28;20052;-65
2022/02/03 08:02:25;;;;;;;21.90;10.90;;;;;;;-6.98;67.40;101043.22;5074092;28;20041;-67
2022/02/03 08:04:53;;;;;;;19.35;11.00;;;;;;;-6.59;67.48;101098.19;5074191;28;20045;-67
2022/02/03 08:07:21;;;;;;;19.38;11.50;;;;;;;-6.62;67.35;101084.47;5076053;28;20502;-66
2022/02/03 08:12:20;;;;;;;21.17;12.15;;;;;;;-6.60;66.91;101080.94;5056525;28;20508;-68
2022/02/03 08:14:48;;;;;;;16.95;11.30;;;;;;;-6.39;66.86;101109.66;5074584;28;20033;-63
2022/02/03 08:17:22;;;;;;;22.55;10.90;;;;;;;-6.42;66.77;101109.75;5056137;28;20032;-66
2022/02/03 08:19:56;;;;;;;27.95;11.77;;;;;;;-6.35;66.75;101106.97;5073710;28;20483;-65
2022/02/03 08:25:26;;;;;;;21.00;11.57;;;;;;;-6.26;66.14;101111.00;5058186;28;20052;-71
2022/02/03 08:28:26;;;;;;;18.40;11.23;;;;;;;-6.44;66.67;101086.50;5075869;28;20040;-63
2022/02/03 08:30:58;;;;;;;18.48;11.10;;;;;;;-6.22;66.23;101116.94;5057902;28;20033;-61
2022/02/03 08:33:23;;;;;;;25.90;14.75;;;;;;;-6.17;66.54;101104.69;5074279;28;20532;-66
2022/02/03 08:35:50;;;;;;;25.67;13.07;;;;;;;-6.20;66.63;101100.44;5073645;28;20059;-66
2022/02/03 08:38:21;;;;;;;21.17;12.98;;;;;;;-5.97;66.44;101123.91;5073823;28;20542;-65
2022/02/03 08:43:20;;;;;;;24.90;14.88;;;;;;;-6.17;66.43;101133.19;5073522;28;20040;-64
2022/02/03 08:45:47;;;;;;;21.30;12.05;;;;;;;-6.55;66.90;101127.44;5073591;28;20388;-66
2022/02/03 08:48:14;;;;;;;21.38;12.55;;;;;;;-6.69;68.19;101126.97;5074311;28;20487;-63
2022/02/03 08:50:40;;;;;;;23.13;14.85;;;;;;;-6.67;68.09;101135.56;5074182;28;20048;-68
2022/02/03 08:53:12;;;;;;;29.10;13.20;;;;;;;-6.47;67.39;101133.22;5073726;28;20044;-66
2022/02/03 09:54:49;;;;;;;16.55;9.60;;;;;;;-5.82;63.73;101152.78;5073088;28;20114;-66
2022/02/03 10:02:22;;;;;;;15.65;9.60;;;;;;;-5.68;62.90;101151.47;5072618;28;20107;-63
2022/02/03 10:04:51;;;;;;;17.15;10.32;;;;;;;-5.66;62.50;101133.25;5072173;28;20047;-63
2022/02/03 10:07:51;;;;;;;22.48;11.77;;;;;;;-5.49;62.09;101151.72;5058222;28;20056;-65
2022/02/03 10:10:22;;;;;;;18.10;11.30;;;;;;;-5.46;62.54;101146.41;5073330;28;20036;-63
2022/02/03 10:12:50;;;;;;;14.02;10.88;;;;;;;-5.41;63.04;101160.06;5073047;28;20451;-68
2022/02/03 10:15:19;;;;;;;15.48;10.68;;;;;;;-5.46;62.31;101143.81;5072575;28;20089;-68
2022/02/03 10:17:49;;;;;;;21.25;11.38;;;;;;;-5.43;62.28;101151.50;5073085;28;20459;-72
2022/02/03 10:20:20;;;;;;;12.85;9.18;;;;;;;-5.47;62.05;101155.09;5073963;28;20051;-71
2022/02/03 10:22:56;;;;;;;21.40;13.63;;;;;;;-5.75;62.04;101110.22;5054819;28;20384;-74
2022/02/03 10:25:35;;;;;;;17.85;10.75;;;;;;;-5.39;62.46;101167.81;5072231;28;20043;-70
2022/02/03 10:28:11;;;;;;;14.27;9.63;;;;;;;-5.41;62.57;101175.66;5073754;28;20036;-69
2022/02/03 10:30:46;;;;;;;16.90;10.65;;;;;;;-5.40;62.04;101177.34;5054289;28;20131;-64
2022/02/03 10:33:12;;;;;;;17.75;10.55;;;;;;;-5.49;62.65;101158.63;5054041;28;20178;-65
2022/02/03 10:46:12;;;;;;;19.52;9.75;;;;;;;-5.47;61.78;101193.19;5053661;28;20502;-66
2022/02/03 10:52:00;;;;;;;16.35;8.40;;;;;;;-5.61;61.19;101186.69;5071042;28;20032;-66
2022/02/03 11:10:38;;;;;;;14.63;8.63;;;;;;;-5.49;61.89;101203.63;5071863;28;20415;-70
2022/02/03 11:13:04;;;;;;;20.98;9.80;;;;;;;-5.47;61.98;101198.38;5072080;28;20075;-68
2022/02/03 11:15:33;;;;;;;18.98;10.13;;;;;;;-5.46;61.92;101200.06;5054752;28;20040;-73
2022/02/03 11:18:00;;;;;;;15.88;10.63;;;;;;;-5.39;61.87;101197.22;5054038;28;20098;-67
2022/02/03 11:20:30;;;;;;;13.57;8.35;;;;;;;-5.55;61.53;101172.66;5071794;28;20544;-69
2022/02/03 11:23:23;;;;;;;14.73;10.60;;;;;;;-5.45;61.35;101191.38;5053904;28;20032;-68
2022/02/03 11:28:39;;;;;;;15.63;9.87;;;;;;;-5.38;61.46;101188.53;5074968;28;20032;-66
2022/02/03 11:44:29;;;;;;;14.95;8.93;;;;;;;-4.96;59.60;101213.91;5076082;28;20040;-66
2022/02/03 11:50:32;;;;;;;8.45;6.45;;;;;;;-5.03;60.32;101194.25;5074718;28;20443;-69
2022/02/03 12:02:11;;;;;;;16.45;8.02;;;;;;;-5.41;60.93;101222.38;5074399;28;20096;-67
2022/02/03 12:07:52;;;;;;;13.05;9.52;;;;;;;-5.91;61.61;101216.22;5073193;28;20036;-66
2022/02/03 12:19:03;;;;;;;16.10;9.43;;;;;;;-5.83;61.06;101245.31;5067327;28;20415;-67
2022/02/03 12:21:39;;;;;;;15.52;8.88;;;;;;;-5.89;61.92;101234.31;5038869;28;20115;-65
2022/02/03 12:24:53;;;;;;;13.10;8.43;;;;;;;-5.84;62.44;101237.59;5073415;28;20043;-66
2022/02/03 12:28:14;;;;;;;16.33;8.77;;;;;;;-5.71;61.58;101228.53;5052320;28;20491;-67
2022/02/03 12:30:24;;;;;;;14.38;8.52;;;;;;;-5.56;61.76;101233.22;5058651;28;20044;-63
2022/02/03 12:38:37;;;;;;;15.18;9.02;;;;;;;-5.58;60.62;101242.81;5072934;28;20138;-69
2022/02/03 12:41:12;;;;;;;11.80;7.97;;;;;;;-5.60;60.89;101247.22;5055257;28;20456;-71
2022/02/03 12:43:41;;;;;;;12.55;8.27;;;;;;;-5.99;60.78;101197.47;5073337;28;20403;-70
2022/02/03 12:46:07;;;;;;;;;;;;;;;-5.68;60.74;101267.38;5073893;28;20040;-73
2022/02/03 12:48:35;;;;;;;12.57;8.13;;;;;;;-5.85;60.31;101262.69;5074241;28;20025;-71
2022/02/03 12:51:02;;;;;;;10.32;7.38;;;;;;;-5.82;60.69;101265.19;5073379;28;20123;-71
2022/02/03 12:53:37;;;;;;;7.97;6.78;;;;;;;-6.00;59.34;101243.28;5073279;28;20047;-71
2022/02/03 12:56:06;;;;;;;9.75;7.03;;;;;;;-6.23;60.99;101224.13;5075661;28;20033;-73
2022/02/03 12:58:41;;;;;;;11.20;7.68;;;;;;;-5.89;61.36;101275.81;5075365;28;20047;-69
2022/02/03 13:01:28;;;;;;;12.38;7.95;;;;;;;-5.81;61.35;101279.00;5074117;28;20043;-72
2022/02/03 13:03:54;;;;;;;10.02;7.50;;;;;;;-5.86;60.25;101270.50;5074231;28;20082;-64
2022/02/03 13:06:23;;;;;;;15.50;7.33;;;;;;;-5.84;61.11;101284.28;5074640;28;20032;-72
2022/02/03 13:08:57;;;;;;;10.50;6.90;;;;;;;-5.87;60.94;101279.19;5074293;28;20303;-63
2022/02/03 13:17:00;;;;;;;13.75;9.73;;;;;;;-5.73;60.41;101274.44;5073760;28;20041;-62
2022/02/03 13:19:41;;;;;;;11.07;8.30;;;;;;;-5.83;60.88;101280.78;5073015;28;20032;-65
2022/02/03 13:27:18;;;;;;;11.13;8.05;;;;;;;-6.00;62.26;101273.56;5073895;28;20049;-63
2022/02/03 13:30:25;;;;;;;12.15;8.25;;;;;;;-5.95;61.51;101287.22;5055335;28;20079;-62
2022/02/03 13:32:40;;;;;;;9.55;7.70;;;;;;;-5.98;61.42;101288.19;5067282;28;20047;-63
2022/02/03 13:35:26;;;;;;;13.80;8.38;;;;;;;-6.05;61.68;101286.66;5073395;28;20040;-64
2022/02/03 13:37:57;;;;;;;13.07;7.07;;;;;;;-6.21;61.62;101269.84;5073609;28;20048;-64
2022/02/03 13:40:26;;;;;;;12.80;7.80;;;;;;;-6.19;61.95;101282.75;5072471;28;20395;-63
2022/02/03 13:42:59;;;;;;;13.13;7.55;;;;;;;-7.02;62.30;101158.13;5072855;28;20048;-62
2022/02/03 13:45:24;;;;;;;11.70;8.73;;;;;;;-6.43;62.27;101258.38;5073537;28;20063;-63
2022/02/03 13:47:51;;;;;;;11.97;8.73;;;;;;;-6.32;61.83;101290.03;5073597;28;20495;-61
2022/02/03 13:50:25;;;;;;;9.95;7.25;;;;;;;-6.36;62.86;101296.16;5073412;28;20090;-63
2022/02/03 13:53:07;;;;;;;12.40;9.35;;;;;;;-6.48;63.33;101280.97;5074216;28;20068;-62
2022/02/03 14:28:32;;;;;;;21.15;11.20;;;;;;;-7.26;66.38;101268.31;5071473;28;20036;-73
2022/02/03 14:31:03;;;;;;;26.60;11.77;;;;;;;-7.19;67.05;101288.00;5053527;28;20063;-73
2022/02/03 14:33:33;;;;;;;25.45;13.35;;;;;;;-7.14;66.93;101306.00;5071414;28;20041;-64
2022/02/03 14:36:06;;;;;;;21.55;10.48;;;;;;;-7.32;67.45;101291.75;5071857;28;20032;-62
2022/02/03 14:41:24;;;;;;;20.45;11.30;;;;;;;-7.39;67.89;101290.19;5073968;28;20119;-65
2022/02/03 14:43:51;;;;;;;17.77;11.15;;;;;;;-7.31;67.78;101302.94;5074187;28;20478;-64
2022/02/03 14:46:17;;;;;;;22.48;12.32;;;;;;;-7.27;67.60;101309.75;5073866;28;20465;-65
2022/02/03 14:48:45;;;;;;;21.02;11.45;;;;;;;-7.36;68.59;101310.81;5071678;28;20041;-62
2022/02/03 14:51:17;;;;;;;20.42;10.98;;;;;;;-7.35;68.45;101309.09;5053793;28;20380;-62
2022/02/03 14:53:56;;;;;;;20.75;10.77;;;;;;;-7.32;68.29;101327.97;5070185;28;20036;-61
2022/02/03 14:59:07;;;;;;;23.80;10.25;;;;;;;-7.40;68.08;101322.13;5071367;28;20033;-60
2022/02/03 15:01:33;;;;;;;19.88;10.45;;;;;;;-7.36;68.79;101336.69;5073051;28;20029;-63
2022/02/03 15:04:01;;;;;;;21.37;11.07;;;;;;;-7.38;68.35;101337.63;5075687;28;20046;-61
2022/02/03 15:06:33;;;;;;;13.30;8.25;;;;;;;-7.37;68.99;101334.16;5076547;28;20078;-60
2022/02/03 15:11:55;;;;;;;16.27;11.48;;;;;;;-7.43;69.87;101324.81;5075121;28;20048;-61
2022/02/03 15:14:21;;;;;;;55.85;16.50;;;;;;;-7.49;69.27;101324.94;5074965;28;20048;-60
2022/02/03 15:16:47;;;;;;;20.20;11.97;;;;;;;-7.40;69.24;101348.00;5075019;28;20037;-62
2022/02/03 15:19:12;;;;;;;24.20;12.27;;;;;;;-7.47;69.21;101337.84;5074840;28;20115;-60
2022/02/03 15:21:38;;;;;;;17.50;11.70;;;;;;;-7.40;69.68;101352.34;5074793;28;20473;-61
2022/02/03 15:24:04;;;;;;;28.35;12.40;;;;;;;-7.55;69.95;101333.66;5074979;28;20483;-62
2022/02/03 15:26:30;;;;;;;30.40;12.53;;;;;;;-7.44;69.61;101338.63;5074310;28;20051;-60
2022/02/03 15:28:57;;;;;;;18.30;11.93;;;;;;;-7.45;69.97;101347.28;5074820;28;20033;-62
2022/02/03 15:31:27;;;;;;;23.27;13.07;;;;;;;-7.53;69.70;101336.22;5074520;28;20086;-61
2022/02/03 15:34:03;;;;;;;26.05;13.02;;;;;;;-7.51;70.33;101342.25;5077306;28;20043;-63
2022/02/03 15:36:30;;;;;;;24.90;13.68;;;;;;;-7.49;70.32;101350.81;5057014;28;20032;-60
2022/02/03 15:38:56;;;;;;;20.00;14.00;;;;;;;-7.57;70.14;101332.00;5074448;28;20070;-62
2022/02/03 15:41:26;;;;;;;24.40;14.53;;;;;;;-7.59;70.12;101344.97;5074602;28;20032;-61
2022/02/03 15:43:54;;;;;;;23.45;14.63;;;;;;;-7.57;71.04;101352.69;5074767;28;20430;-63
2022/02/03 15:46:21;;;;;;;29.98;15.02;;;;;;;-7.54;71.36;101357.81;5074207;28;20164;-61
2022/02/03 16:13:12;;;;;;;22.10;14.53;;;;;;;-8.17;70.37;101247.13;5078141;28;20410;-61
2022/02/03 16:18:28;;;;;;;15.65;10.43;;;;;;;-7.68;70.36;101344.34;5075216;28;20387;-63
2022/02/03 16:21:04;;;;;;;17.70;11.65;;;;;;;-7.68;70.35;101347.78;5074397;28;20033;-63
2022/02/03 16:53:09;;;;;;;24.37;16.50;;;;;;;-7.96;72.46;101368.19;5055839;28;20050;-69
2022/02/03 16:55:38;;;;;;;18.57;13.43;;;;;;;-7.90;72.19;101378.38;5073690;28;20036;-67
2022/02/03 16:58:07;;;;;;;18.67;12.98;;;;;;;-8.00;71.73;101357.94;5055620;28;20036;-66
2022/02/03 17:00:32;;;;;;;24.83;15.18;;;;;;;-8.64;72.79;101261.91;5072871;28;20131;-67
2022/02/03 17:03:02;;;;;;;24.30;15.13;;;;;;;-8.03;71.95;101364.03;5054978;28;20071;-66
2022/02/03 17:05:28;;;;;;;27.13;14.77;;;;;;;-8.18;72.32;101349.66;5072740;28;20024;-75
2022/02/03 17:07:56;;;;;;;19.00;13.45;;;;;;;-7.97;72.10;101386.31;5034646;28;20060;-66
2022/02/03 17:10:22;;;;;;;17.98;11.52;;;;;;;-7.99;71.71;101380.31;5053990;28;20072;-72
2022/02/03 17:12:48;;;;;;;33.55;19.23;;;;;;;-8.11;72.57;101369.31;5037758;28;20064;-69
2022/02/03 17:15:14;;;;;;;28.77;20.07;;;;;;;-8.39;72.84;101333.72;5053887;28;20442;-69
2022/02/03 17:17:49;;;;;;;29.08;18.08;;;;;;;-8.17;72.36;101371.19;5052978;28;20045;-71
2022/02/03 17:20:15;;;;;;;28.00;17.90;;;;;;;-8.25;72.77;101357.56;5052297;28;20554;-74
2022/02/03 17:22:43;;;;;;;28.83;14.67;;;;;;;-8.25;72.56;101362.72;5053180;28;20037;-67
2022/02/03 17:30:09;;;;;;;33.30;22.10;;;;;;;-8.13;72.70;101385.72;5052687;28;20035;-74
2022/02/03 18:10:13;;;;;;;38.25;25.65;;;;;;;-8.38;73.66;101408.66;5067206;28;20190;-69
2022/02/03 18:50:58;;;;;;;43.33;27.00;;;;;;;-8.95;74.44;101384.66;5073296;28;20036;-69
2022/02/03 18:54:28;;;;;;;39.35;26.27;;;;;;;-8.91;74.38;101383.72;5075613;28;20035;-64
2022/02/03 18:56:44;;;;;;;34.20;23.38;;;;;;;-8.81;74.34;101400.75;5052943;28;20093;-69
2022/02/03 18:59:31;;;;;;;31.27;20.58;;;;;;;-8.89;74.17;101384.56;5069721;28;20032;-65
2022/02/03 19:26:30;;;;;;;40.70;22.85;;;;;;;-8.84;74.63;101418.88;5047571;28;20036;-67
2022/02/03 20:04:14;;;;;;;23.98;14.25;;;;;;;-9.18;75.16;101419.41;5074149;28;20217;-69
2022/02/03 20:11:43;;;;;;;27.70;16.17;;;;;;;-9.34;74.74;101396.41;5074316;28;20561;-68
2022/02/03 20:14:13;;;;;;;24.65;15.43;;;;;;;-9.19;74.40;101422.84;5074691;28;20083;-66
2022/02/03 20:16:42;;;;;;;27.33;15.68;;;;;;;-9.31;74.49;101407.53;5056619;28;20478;-70
2022/02/03 20:19:09;;;;;;;24.52;15.65;;;;;;;-9.26;74.77;101436.69;5056399;28;20483;-66
2022/02/03 20:21:37;;;;;;;23.65;15.65;;;;;;;-9.40;74.58;101410.25;5074216;28;20048;-67
2022/02/03 20:24:04;;;;;;;27.40;17.83;;;;;;;-9.33;74.50;101429.91;5039971;28;20036;-68
2022/02/03 20:26:35;;;;;;;22.55;14.55;;;;;;;-9.32;74.41;101436.78;5040298;28;20562;-65
2022/02/03 20:29:01;;;;;;;30.63;19.42;;;;;;;-9.43;74.33;101431.78;5075603;28;20047;-66
2022/02/03 20:31:27;;;;;;;28.95;16.35;;;;;;;-9.78;74.33;101374.66;5074711;28;20106;-67
2022/02/03 20:33:53;;;;;;;33.45;18.70;;;;;;;-9.50;75.03;101435.31;5073336;28;20040;-69
2022/02/03 20:36:18;;;;;;;28.73;16.33;;;;;;;-9.65;75.02;101421.75;5072053;28;20041;-66
2022/02/03 20:38:44;;;;;;;24.27;16.47;;;;;;;-9.84;74.90;101409.06;5073297;28;20029;-65
2022/02/03 20:41:10;;;;;;;31.93;18.00;;;;;;;-9.46;75.00;101454.19;5073909;28;20047;-67
2022/02/03 20:43:35;;;;;;;31.33;17.53;;;;;;;-9.49;75.68;101460.22;5072937;28;20381;-65
2022/02/03 20:46:01;;;;;;;32.07;18.67;;;;;;;-9.69;75.38;101426.94;5073218;28;20316;-64
2022/02/03 20:48:30;;;;;;;28.87;19.53;;;;;;;-9.47;74.51;101462.78;5073348;28;20119;-66
2022/02/03 20:50:57;;;;;;;29.45;18.35;;;;;;;-9.49;74.82;101467.13;5073432;28;20033;-65
2022/02/03 20:53:22;;;;;;;31.63;19.08;;;;;;;-9.73;74.76;101434.75;5055587;28;20048;-64
2022/02/03 20:55:48;;;;;;;30.70;18.07;;;;;;;-9.92;74.82;101408.31;5073503;28;20449;-67
2022/02/03 20:58:20;;;;;;;36.97;19.03;;;;;;;-9.75;75.37;101449.38;5054843;28;20075;-66
2022/02/03 21:00:54;;;;;;;32.08;19.23;;;;;;;-9.66;74.94;101461.28;5055757;28;20041;-67
2022/02/03 21:03:29;;;;;;;39.67;24.25;;;;;;;-9.67;74.49;101465.59;5074083;28;20411;-64
2022/02/03 21:05:54;;;;;;;36.65;22.90;;;;;;;-9.83;74.51;101449.47;5073126;28;20445;-65
2022/02/03 21:08:28;;;;;;;39.60;19.73;;;;;;;-9.81;74.69;101452.88;5055156;28;20135;-64
2022/02/03 21:11:01;;;;;;;32.92;20.30;;;;;;;-9.80;74.76;101454.59;5055471;28;20139;-66
2022/02/03 21:13:27;;;;;;;45.63;23.15;;;;;;;-9.84;74.86;101457.19;5073430;28;20055;-67
2022/02/03 21:15:54;;;;;;;35.72;20.38;;;;;;;-9.86;74.48;101452.06;5055531;28;20036;-64
2022/02/03 21:18:20;;;;;;;45.88;23.40;;;;;;;-9.83;74.54;101462.34;5073136;28;20036;-66
2022/02/03 21:20:50;;;;;;;38.78;20.55;;;;;;;-9.93;74.50;101452.16;5072949;28;20033;-65
2022/02/03 21:23:17;;;;;;;38.88;23.13;;;;;;;-9.86;74.14;101469.25;5072776;28;20549;-64
2022/02/03 21:25:46;;;;;;;33.65;21.63;;;;;;;-9.90;74.51;101463.28;5055294;28;20043;-65
2022/02/03 21:28:24;;;;;;;36.30;24.27;;;;;;;-9.95;74.37;101467.63;5040147;28;20044;-65
2022/02/03 21:30:51;;;;;;;36.65;22.23;;;;;;;-9.90;73.90;101486.47;5073604;28;20040;-64
2022/02/03 21:33:23;;;;;;;40.25;23.08;;;;;;;-10.04;74.15;101473.75;5073486;28;20055;-64
2022/02/03 21:35:50;;;;;;;34.63;22.92;;;;;;;-10.16;74.39;101460.97;5073418;28;20511;-65
2022/02/03 21:38:17;;;;;;;41.45;24.30;;;;;;;-10.03;74.38;101482.31;5073006;28;20100;-68
2022/02/03 21:40:42;;;;;;;45.25;23.75;;;;;;;-10.18;74.63;101461.84;5073305;28;20470;-66
2022/02/03 21:43:08;;;;;;;42.40;21.60;;;;;;;-10.10;74.39;101478.97;5054834;28;20033;-64
2022/02/03 21:45:35;;;;;;;44.70;25.10;;;;;;;-10.05;74.66;101490.06;5072850;28;20065;-67
2022/02/03 21:48:00;;;;;;;39.63;24.25;;;;;;;-10.25;75.31;101455.94;5037870;28;20063;-64
2022/02/03 21:50:32;;;;;;;37.07;22.33;;;;;;;-10.16;74.89;101479.00;5054813;28;20093;-67
2022/02/03 21:52:57;;;;;;;44.10;25.80;;;;;;;-10.06;75.04;101488.34;5072628;28;20039;-64
2022/02/03 21:55:24;;;;;;;39.23;22.17;;;;;;;-10.03;74.55;101498.63;5072271;28;20028;-64
2022/02/03 21:57:53;;;;;;;42.25;23.83;;;;;;;-10.05;74.62;101489.22;5072435;28;20036;-65
2022/02/03 22:00:20;;;;;;;47.50;27.17;;;;;;;-10.24;75.17;101461.94;5054792;28;20553;-66
2022/02/03 22:02:46;;;;;;;37.17;24.27;;;;;;;-10.19;75.01;101481.59;5072562;28;20032;-64
2022/02/03 22:05:12;;;;;;;44.22;24.63;;;;;;;-10.20;75.10;101479.06;5071847;28;20038;-63
2022/02/03 22:07:42;;;;;;;46.40;24.67;;;;;;;-10.17;75.03;101481.59;5071826;28;20040;-65
2022/02/03 22:10:10;;;;;;;51.17;27.40;;;;;;;-10.16;75.05;101489.28;5071726;28;20056;-63
2022/02/03 22:12:36;;;;;;;46.65;28.52;;;;;;;-10.17;74.76;101487.59;5072167;28;20460;-64
2022/02/03 22:15:03;;;;;;;48.10;28.48;;;;;;;-10.27;74.54;101472.28;5072003;28;20063;-65
2022/02/03 22:17:29;;;;;;;53.00;27.20;;;;;;;-10.47;74.53;101463.00;5072063;28;20039;-63
2022/02/03 22:19:55;;;;;;;50.10;27.47;;;;;;;-10.26;74.17;101500.59;5053807;28;20431;-64
2022/02/03 22:46:37;;;;;;;53.65;31.92;;;;;;;-10.38;74.85;101521.31;5071688;28;20068;-65
2022/02/03 22:49:05;;;;;;;56.28;31.60;;;;;;;-10.45;74.61;101499.88;5071605;28;20044;-64